Time;durP1;ratioP1;P1;durP2;ratioP2;P2;SDS_P1;SDS_P2;PMS_P1;PMS_P2;Temp;Humidity;BMP_temperature;BMP_pressure;BME280_temperature;BME280_humidity;BME280_pressure;Samples;Min_cycle;Max_cycle;Signal;HPM_P1;HPM_P2
2022/06/11 00:01:56;;;;;;;7.65;4.50;;;;;;;25.21;63.99;100643.69;1717653;83;21050;-69
2022/06/11 00:04:29;;;;;;;7.42;4.15;;;;;;;25.39;63.35;100643.08;1713511;83;21100;-69
2022/06/11 00:07:02;;;;;;;7.65;4.42;;;;;;;25.20;64.06;100643.31;1716824;83;21111;-69
2022/06/11 00:09:31;;;;;;;8.88;4.35;;;;;;;25.15;64.34;100645.61;1702843;83;21041;-69
2022/06/11 00:11:59;;;;;;;8.38;3.85;;;;;;;24.90;63.93;100638.94;1698002;83;21490;-69
2022/06/11 00:14:30;;;;;;;8.20;3.80;;;;;;;24.76;64.87;100636.90;1694648;83;21055;-69
2022/06/11 00:16:59;;;;;;;7.95;3.60;;;;;;;24.88;64.86;100635.64;1705720;83;21043;-69
2022/06/11 00:19:27;;;;;;;5.58;3.60;;;;;;;24.94;64.99;100632.38;1692383;83;21070;-69
2022/06/11 00:21:56;;;;;;;6.70;3.85;;;;;;;24.79;65.91;100632.62;1702137;83;21062;-69
2022/06/11 00:24:26;;;;;;;9.10;4.00;;;;;;;24.77;65.97;100631.45;1712169;83;21141;-69
2022/06/11 00:26:56;;;;;;;6.72;3.80;;;;;;;24.74;65.66;100633.59;1708017;83;21397;-69
2022/06/11 00:29:28;;;;;;;8.25;3.90;;;;;;;24.67;65.46;100631.24;1692443;83;21084;-69
2022/06/11 00:31:57;;;;;;;8.43;3.95;;;;;;;24.34;66.02;100635.78;1706363;83;21080;-68
2022/06/11 00:34:26;;;;;;;10.78;4.90;;;;;;;24.24;66.65;100635.55;1704772;83;21539;-69
2022/06/11 00:36:54;;;;;;;8.13;5.00;;;;;;;24.12;67.85;100638.42;1705881;83;21001;-69
2022/06/11 00:39:26;;;;;;;9.33;4.70;;;;;;;24.07;69.13;100637.22;1724067;83;21117;-69
2022/06/11 00:41:58;;;;;;;6.55;4.40;;;;;;;24.08;70.06;100638.88;1699613;83;21049;-69
2022/06/11 00:44:27;;;;;;;6.00;3.70;;;;;;;24.16;70.79;100638.95;1704476;83;21069;-69
2022/06/11 00:47:05;;;;;;;6.65;3.95;;;;;;;24.12;70.96;100643.68;1716795;83;21032;-68
2022/06/11 00:49:55;;;;;;;8.50;3.90;;;;;;;24.20;71.15;100641.11;1719055;83;21517;-68
2022/06/11 00:52:36;;;;;;;5.97;4.28;;;;;;;24.32;70.63;100641.69;1705254;83;21097;-68
2022/06/11 00:55:22;;;;;;;8.90;4.17;;;;;;;24.20;70.88;100644.23;1704717;83;21578;-68
2022/06/11 00:58:10;;;;;;;8.85;3.90;;;;;;;24.17;70.57;100642.74;1690845;83;21106;-68
2022/06/11 01:00:52;;;;;;;11.10;4.40;;;;;;;24.18;69.94;100648.83;1656529;85;21149;-68
2022/06/11 01:03:39;;;;;;;9.10;4.42;;;;;;;24.20;70.82;100645.55;1681613;84;21564;-68
2022/06/11 01:06:37;;;;;;;14.35;4.47;;;;;;;24.20;71.04;100645.05;1653223;86;21087;-69
2022/06/11 01:09:22;;;;;;;8.23;4.30;;;;;;;24.21;71.32;100655.11;1704721;83;21070;-68
2022/06/11 01:12:14;;;;;;;8.93;4.45;;;;;;;24.36;71.18;100652.24;1699809;83;21095;-69
2022/06/11 01:15:03;;;;;;;7.35;4.90;;;;;;;24.08;71.35;100653.34;1707666;83;21061;-68
2022/06/11 01:17:57;;;;;;;8.60;4.33;;;;;;;24.03;72.44;100648.55;1688476;83;21134;-69
2022/06/11 01:20:39;;;;;;;8.25;3.60;;;;;;;24.09;72.32;100653.70;1718297;83;21171;-68
2022/06/11 01:23:25;;;;;;;5.58;3.30;;;;;;;23.97;74.35;100654.42;1701146;83;21105;-68
2022/06/11 01:26:23;;;;;;;6.10;3.20;;;;;;;23.90;77.37;100654.17;1695338;83;21087;-69
2022/06/11 01:29:31;;;;;;;6.12;3.40;;;;;;;23.86;78.18;100656.77;1722330;83;21032;-68
2022/06/11 01:32:04;;;;;;;7.45;3.70;;;;;;;23.86;78.54;100659.40;1716337;83;21104;-68
2022/06/11 01:34:36;;;;;;;7.12;5.10;;;;;;;23.85;78.97;100656.94;1704597;83;21534;-68
2022/06/11 01:37:11;;;;;;;10.10;4.85;;;;;;;23.89;76.87;100660.92;1706163;83;21124;-69
2022/06/11 01:39:51;;;;;;;6.83;4.83;;;;;;;23.92;75.81;100661.92;1700873;83;21017;-69
2022/06/11 01:42:39;;;;;;;10.68;4.85;;;;;;;23.81;75.99;100668.73;1696580;83;21562;-69
2022/06/11 01:45:19;;;;;;;10.15;6.25;;;;;;;23.81;75.98;100676.12;1690215;83;21047;-69
2022/06/11 01:47:48;;;;;;;15.30;5.67;;;;;;;23.52;76.84;100677.13;1695239;83;21077;-69
2022/06/11 01:50:19;;;;;;;12.43;5.95;;;;;;;23.70;76.88;100672.36;1683594;83;21062;-69
2022/06/11 01:53:07;;;;;;;9.75;5.58;;;;;;;23.74;75.96;100677.66;1698488;83;21088;-69
2022/06/11 01:55:56;;;;;;;12.37;5.53;;;;;;;23.80;75.48;100677.09;1696573;83;21582;-70
2022/06/11 01:58:41;;;;;;;9.78;5.28;;;;;;;23.70;76.61;100682.88;1704367;83;21013;-69
2022/06/11 02:01:19;;;;;;;11.78;4.75;;;;;;;23.51;77.82;100683.83;1709352;83;21152;-69
2022/06/11 02:04:04;;;;;;;10.18;5.65;;;;;;;23.38;77.12;100689.44;1709550;83;21147;-69
2022/06/11 02:06:39;;;;;;;13.53;5.85;;;;;;;23.04;79.84;100697.06;1702126;83;21079;-69
2022/06/11 02:09:34;;;;;;;9.48;5.87;;;;;;;23.09;80.51;100687.76;1706090;83;21103;-69
2022/06/11 02:12:43;;;;;;;11.60;5.40;;;;;;;23.21;80.93;100685.77;1714605;83;21108;-69
2022/06/11 02:15:29;;;;;;;8.18;5.22;;;;;;;23.19;80.61;100683.78;1723583;83;21092;-70
2022/06/11 02:18:08;;;;;;;8.10;4.58;;;;;;;23.47;79.21;100671.47;1694033;83;21097;-70
2022/06/11 02:20:44;;;;;;;10.20;5.60;;;;;;;23.65;78.54;100678.06;1706501;83;21186;-69
2022/06/11 02:23:25;;;;;;;9.73;4.78;;;;;;;23.82;77.50;100671.19;1707050;83;21026;-69
2022/06/11 02:25:58;;;;;;;12.03;5.28;;;;;;;23.80;76.62;100678.40;1712594;83;21099;-69
2022/06/11 02:28:30;;;;;;;8.80;5.00;;;;;;;23.92;76.83;100676.38;1710595;83;21072;-69
2022/06/11 02:31:01;;;;;;;8.78;5.60;;;;;;;24.02;76.78;100676.30;1686015;83;21045;-69
2022/06/11 02:33:32;;;;;;;9.48;5.53;;;;;;;24.09;76.15;100681.31;1712710;83;21040;-69
2022/06/11 02:36:14;;;;;;;6.80;4.90;;;;;;;24.10;76.13;100678.51;1695019;83;21894;-69
2022/06/11 02:38:42;;;;;;;7.72;4.35;;;;;;;24.13;77.17;100674.77;1682743;83;21068;-69
2022/06/11 02:41:17;;;;;;;10.65;4.20;;;;;;;24.30;77.56;100686.23;1710286;83;21127;-69
2022/06/11 02:43:45;;;;;;;7.10;4.10;;;;;;;24.33;77.86;100683.29;1685016;83;21024;-69
2022/06/11 02:49:00;;;;;;;6.42;3.90;;;;;;;24.06;79.88;100688.99;1709479;83;21524;-69
2022/06/11 02:51:30;;;;;;;8.80;4.10;;;;;;;24.31;78.50;100686.09;1706269;83;21529;-69
2022/06/11 02:53:58;;;;;;;4.97;3.80;;;;;;;24.47;77.57;100693.75;1692619;83;21014;-69
2022/06/11 02:56:27;;;;;;;6.45;3.75;;;;;;;24.53;77.61;100697.12;1693441;83;21089;-69
2022/06/11 02:58:55;;;;;;;6.75;3.60;;;;;;;24.69;76.65;100698.53;1721594;83;21084;-69
2022/06/11 03:01:27;;;;;;;6.83;4.20;;;;;;;24.81;76.43;100696.97;1715421;83;21605;-69
2022/06/11 03:03:55;;;;;;;6.25;4.30;;;;;;;24.85;75.10;100695.18;1701850;83;21623;-69
2022/06/11 03:06:26;;;;;;;6.78;4.20;;;;;;;24.92;74.36;100690.11;1694521;83;21097;-69
2022/06/11 03:08:55;;;;;;;7.25;4.47;;;;;;;25.08;74.35;100688.90;1700115;83;21073;-68
2022/06/11 03:11:23;;;;;;;6.15;4.40;;;;;;;25.28;73.66;100689.47;1697721;83;21548;-68
2022/06/11 03:13:52;;;;;;;6.87;4.03;;;;;;;25.55;71.82;100688.92;1702356;83;21053;-68
2022/06/11 03:16:20;;;;;;;6.42;3.75;;;;;;;25.59;71.88;100693.70;1696910;83;21062;-69
2022/06/11 03:18:48;;;;;;;7.80;4.35;;;;;;;25.64;71.75;100691.89;1708959;83;21060;-68
2022/06/11 03:21:15;;;;;;;7.87;4.30;;;;;;;25.85;71.01;100695.41;1705528;83;21040;-68
2022/06/11 03:23:43;;;;;;;9.15;4.60;;;;;;;26.08;69.65;100703.53;1697097;83;21089;-68
2022/06/11 03:26:10;;;;;;;11.35;4.50;;;;;;;26.02;69.58;100706.83;1692250;83;21017;-68
2022/06/11 03:28:37;;;;;;;9.48;4.40;;;;;;;25.84;69.87;100704.30;1697780;83;21514;-68
2022/06/11 03:31:06;;;;;;;8.78;4.67;;;;;;;25.94;69.21;100705.50;1706856;83;21088;-68
2022/06/11 03:33:36;;;;;;;8.35;4.28;;;;;;;25.83;70.51;100703.13;1702737;83;21101;-68
2022/06/11 03:36:09;;;;;;;9.73;4.90;;;;;;;26.12;69.93;100703.53;1706314;83;21528;-68
2022/06/11 03:38:39;;;;;;;7.70;4.55;;;;;;;26.38;68.94;100699.41;1708216;83;21060;-68
2022/06/11 03:41:07;;;;;;;5.53;4.17;;;;;;;26.58;68.43;100699.91;1694738;83;21058;-68
2022/06/11 03:43:35;;;;;;;7.80;4.08;;;;;;;26.67;68.41;100700.71;1692798;83;21054;-68
2022/06/11 03:46:06;;;;;;;8.15;4.62;;;;;;;26.86;67.03;100696.86;1686493;84;21060;-68
2022/06/11 03:48:36;;;;;;;5.67;4.03;;;;;;;26.86;67.21;100699.50;1683856;83;21055;-68
2022/06/11 03:51:06;;;;;;;7.08;4.50;;;;;;;26.98;67.32;100700.78;1701959;83;21533;-68
2022/06/11 03:53:34;;;;;;;7.67;4.17;;;;;;;26.98;67.47;100702.61;1701046;83;21081;-68
2022/06/11 03:56:06;;;;;;;11.35;4.37;;;;;;;27.12;67.67;100696.61;1707670;83;21048;-68
2022/06/11 03:58:38;;;;;;;8.63;4.35;;;;;;;27.09;67.76;100704.89;1718981;83;21555;-68
2022/06/11 04:01:15;;;;;;;7.47;3.80;;;;;;;27.25;67.63;100701.87;1699866;83;21046;-68
2022/06/11 04:03:53;;;;;;;6.30;4.08;;;;;;;27.46;67.25;100701.29;1708877;83;21098;-68
2022/06/11 04:06:26;;;;;;;9.15;4.03;;;;;;;27.86;66.29;100691.43;1704559;83;21057;-69
2022/06/11 04:08:54;;;;;;;8.20;4.00;;;;;;;27.80;65.91;100697.42;1691296;83;21089;-69
2022/06/11 04:11:24;;;;;;;6.22;3.80;;;;;;;27.86;65.47;100695.40;1704984;83;21049;-69
2022/06/11 04:13:53;;;;;;;8.05;3.80;;;;;;;27.96;65.41;100697.34;1702280;83;21142;-69
2022/06/11 04:16:37;;;;;;;6.67;3.98;;;;;;;28.05;65.12;100700.26;1710384;83;21065;-69
2022/06/11 04:19:07;;;;;;;;;;;;;;;28.22;64.78;100699.61;1664566;83;21071;-69
2022/06/11 04:21:36;;;;;;;11.95;3.77;;;;;;;28.22;65.03;100702.26;1694399;83;20458;-69
2022/06/11 04:24:06;;;;;;;7.90;4.12;;;;;;;28.42;65.23;100701.26;1696446;83;21050;-69
2022/06/11 04:26:38;;;;;;;8.88;4.10;;;;;;;28.62;64.37;100702.92;1692959;83;21120;-69
2022/06/11 04:29:09;;;;;;;7.37;3.90;;;;;;;28.81;64.13;100706.84;1709154;83;21041;-68
2022/06/11 04:31:37;;;;;;;10.50;4.00;;;;;;;29.04;63.28;100703.30;1699410;83;21100;-69
2022/06/11 04:34:05;;;;;;;7.35;3.58;;;;;;;29.21;62.07;100702.11;1723609;83;21068;-68
2022/06/11 04:36:36;;;;;;;9.43;4.40;;;;;;;29.29;61.48;100703.84;1691497;83;21136;-68
2022/06/11 04:39:07;;;;;;;10.30;3.92;;;;;;;29.50;61.47;100700.39;1724230;83;21033;-68
2022/06/11 04:41:37;;;;;;;10.58;3.90;;;;;;;29.47;60.87;100703.44;1702181;83;21049;-68
2022/06/11 04:44:05;;;;;;;11.20;4.20;;;;;;;29.62;59.85;100702.05;1707092;83;21057;-68
2022/06/11 04:46:35;;;;;;;7.55;4.28;;;;;;;29.85;59.17;100709.89;1712814;83;21080;-68
2022/06/11 04:49:04;;;;;;;11.50;4.10;;;;;;;30.01;57.09;100708.30;1723685;83;21120;-68
2022/06/11 04:51:32;;;;;;;9.78;4.17;;;;;;;30.31;55.75;100706.34;1710792;83;21543;-68
2022/06/11 04:53:59;;;;;;;12.73;4.85;;;;;;;30.39;54.91;100709.85;1716822;83;21013;-68
2022/06/11 04:56:29;;;;;;;10.05;4.58;;;;;;;30.67;54.86;100705.86;1704973;83;21079;-68
2022/06/11 04:58:57;;;;;;;9.18;4.42;;;;;;;30.57;54.57;100713.36;1700052;83;21042;-68
2022/06/11 05:01:26;;;;;;;7.80;4.20;;;;;;;30.47;55.16;100711.84;1709858;83;21072;-69
2022/06/11 05:03:55;;;;;;;6.15;4.15;;;;;;;30.72;55.49;100716.22;1704976;83;21065;-68
2022/06/11 05:06:29;;;;;;;9.13;4.10;;;;;;;30.76;54.60;100707.36;1705706;83;21102;-69
2022/06/11 05:08:57;;;;;;;11.28;4.95;;;;;;;30.99;53.86;100715.58;1688440;83;21555;-69
2022/06/11 05:11:25;;;;;;;10.35;4.83;;;;;;;31.10;53.21;100713.67;1695364;83;21511;-69
2022/06/11 05:13:52;;;;;;;14.43;5.20;;;;;;;31.17;53.35;100719.04;1692724;83;21129;-68
2022/06/11 05:16:21;;;;;;;11.10;5.12;;;;;;;31.22;53.12;100724.05;1713389;83;21061;-69
2022/06/11 05:18:50;;;;;;;11.40;5.17;;;;;;;31.43;52.21;100723.61;1697586;83;21589;-68
2022/06/11 05:21:19;;;;;;;10.23;4.60;;;;;;;31.44;52.27;100730.59;1709258;83;21085;-69
2022/06/11 05:23:46;;;;;;;10.63;5.55;;;;;;;31.59;52.70;100729.96;1716670;83;21048;-69
2022/06/11 05:26:21;;;;;;;9.78;4.97;;;;;;;31.67;52.34;100731.11;1701913;83;21053;-68
2022/06/11 05:28:50;;;;;;;8.60;4.75;;;;;;;31.64;52.00;100734.16;1712442;83;21092;-69
2022/06/11 05:31:18;;;;;;;6.70;4.83;;;;;;;31.83;51.54;100733.88;1688202;83;21046;-68
2022/06/11 05:33:46;;;;;;;13.05;4.75;;;;;;;32.01;51.43;100733.32;1708100;83;21528;-68
2022/06/11 05:36:16;;;;;;;9.78;4.80;;;;;;;32.11;51.05;100740.39;1694571;83;21589;-69
2022/06/11 05:38:44;;;;;;;8.38;4.65;;;;;;;32.09;51.29;100738.97;1700052;83;21066;-70
2022/06/11 05:41:11;;;;;;;7.40;4.70;;;;;;;32.30;51.52;100737.94;1681026;83;21045;-69
2022/06/11 05:43:39;;;;;;;10.43;3.92;;;;;;;32.26;51.35;100746.88;1708706;83;21042;-69
2022/06/11 05:46:11;;;;;;;8.95;4.05;;;;;;;32.12;50.05;100754.03;1716894;83;21048;-69
2022/06/11 05:48:44;;;;;;;10.03;3.77;;;;;;;32.38;49.69;100744.91;1708496;83;21009;-69
2022/06/11 05:51:15;;;;;;;10.78;3.60;;;;;;;32.31;48.90;100748.91;1693920;83;21061;-69
2022/06/11 05:53:43;;;;;;;6.78;3.60;;;;;;;32.63;49.08;100752.61;1708587;83;21041;-68
2022/06/11 05:56:12;;;;;;;7.33;3.33;;;;;;;32.88;48.93;100750.09;1709262;83;21069;-68
2022/06/11 05:58:54;;;;;;;6.22;3.65;;;;;;;32.94;49.01;100749.25;1673869;84;21090;-68
2022/06/11 06:01:26;;;;;;;11.73;3.58;;;;;;;33.03;48.94;100747.69;1704944;83;21498;-69
2022/06/11 06:03:53;;;;;;;6.33;3.40;;;;;;;33.13;48.18;100744.09;1690278;83;21531;-69
2022/06/11 06:06:20;;;;;;;7.60;3.22;;;;;;;33.05;48.10;100749.63;1687666;83;21035;-69
2022/06/11 06:08:48;;;;;;;8.85;3.55;;;;;;;33.17;45.51;100747.97;1707256;83;21529;-69
2022/06/11 06:11:16;;;;;;;8.20;3.37;;;;;;;33.40;47.28;100747.48;1702602;83;21542;-69
2022/06/11 06:13:48;;;;;;;8.80;3.33;;;;;;;33.22;47.50;100750.03;1692898;83;21035;-69
2022/06/11 06:16:22;;;;;;;11.15;3.22;;;;;;;33.35;45.63;100747.28;1692127;83;21065;-69
2022/06/11 06:18:52;;;;;;;8.43;3.40;;;;;;;33.58;45.80;100748.11;1712959;84;21053;-69
2022/06/11 06:21:23;;;;;;;5.72;3.33;;;;;;;33.68;45.01;100750.31;1720636;83;21572;-69
2022/06/11 06:23:51;;;;;;;7.45;3.25;;;;;;;33.84;45.16;100745.83;1697847;83;21531;-68
2022/06/11 06:26:19;;;;;;;8.03;3.10;;;;;;;33.95;44.41;100750.98;1699846;83;21540;-69
2022/06/11 06:28:46;;;;;;;10.95;3.58;;;;;;;34.39;44.34;100749.23;1699373;83;21113;-69
2022/06/11 06:31:14;;;;;;;10.40;2.83;;;;;;;34.42;42.55;100749.30;1702080;83;21043;-69
2022/06/11 06:33:42;;;;;;;8.43;3.08;;;;;;;33.83;41.42;100751.38;1712191;83;21100;-69
2022/06/11 06:36:12;;;;;;;6.70;3.37;;;;;;;34.62;41.51;100753.13;1703973;83;21544;-68
2022/06/11 06:38:40;;;;;;;8.80;2.98;;;;;;;34.79;41.68;100750.19;1710418;83;21041;-69
2022/06/11 06:41:08;;;;;;;6.78;2.67;;;;;;;34.90;42.72;100759.34;1722949;83;21041;-69
2022/06/11 06:43:35;;;;;;;8.45;3.10;;;;;;;34.83;40.35;100756.72;1690110;83;21047;-69
2022/06/11 06:46:05;;;;;;;9.20;2.87;;;;;;;34.99;41.78;100757.19;1693717;83;21052;-69
2022/06/11 06:48:33;;;;;;;7.53;2.83;;;;;;;34.96;40.42;100754.94;1720892;83;21053;-68
2022/06/11 06:51:02;;;;;;;11.88;3.17;;;;;;;35.04;40.54;100754.67;1714056;83;21100;-69
2022/06/11 06:53:30;;;;;;;11.20;3.50;;;;;;;35.09;41.08;100758.28;1718496;83;21048;-68
2022/06/11 06:55:57;;;;;;;5.97;2.70;;;;;;;34.91;40.02;100759.63;1714485;83;21016;-69
2022/06/11 06:58:24;;;;;;;12.23;3.42;;;;;;;35.19;40.71;100761.00;1720310;83;21029;-69
2022/06/11 07:00:53;;;;;;;10.98;2.90;;;;;;;35.45;40.50;100762.52;1697823;83;21085;-69
2022/06/11 07:03:20;;;;;;;6.00;2.45;;;;;;;35.61;40.29;100761.88;1708872;83;21111;-68
2022/06/11 07:05:51;;;;;;;5.28;2.72;;;;;;;35.74;39.85;100762.77;1697986;83;21326;-68
2022/06/11 07:08:19;;;;;;;9.85;2.85;;;;;;;35.75;40.30;100765.22;1716812;83;21039;-68
2022/06/11 07:10:54;;;;;;;6.70;2.98;;;;;;;35.78;40.18;100764.75;1704179;83;21026;-68
2022/06/11 07:13:22;;;;;;;12.03;3.10;;;;;;;35.67;39.14;100773.58;1676641;83;21090;-68
2022/06/11 07:15:55;;;;;;;8.63;2.80;;;;;;;36.00;39.13;100769.05;1711402;83;21110;-68
2022/06/11 07:18:27;;;;;;;9.50;2.60;;;;;;;36.08;40.02;100764.70;1710004;83;21009;-68
2022/06/11 07:20:58;;;;;;;5.87;2.90;;;;;;;36.09;39.08;100760.98;1697664;83;21101;-68
2022/06/11 07:23:48;;;;;;;8.90;2.85;;;;;;;35.94;38.92;100763.81;1691879;83;21068;-68
2022/06/11 07:26:23;;;;;;;6.58;2.40;;;;;;;36.08;38.33;100758.00;1701329;83;21017;-68
2022/06/11 07:29:16;;;;;;;6.42;2.62;;;;;;;35.75;37.40;100765.22;1691262;83;21038;-69
2022/06/11 07:31:47;;;;;;;7.37;2.90;;;;;;;35.97;35.39;100762.84;1699718;83;21052;-68
2022/06/11 07:34:15;;;;;;;6.30;2.65;;;;;;;36.08;36.53;100763.36;1717419;83;21062;-68
2022/06/11 07:36:43;;;;;;;4.95;2.80;;;;;;;36.50;36.17;100763.84;1713825;83;21002;-69
2022/06/11 07:39:10;;;;;;;6.90;2.70;;;;;;;36.62;36.10;100765.16;1712738;83;21113;-69
2022/06/11 07:41:38;;;;;;;7.22;2.90;;;;;;;36.65;35.72;100756.16;1723988;83;21056;-68
2022/06/11 07:44:06;;;;;;;8.38;3.22;;;;;;;36.13;33.79;100749.80;1706891;83;21562;-68
2022/06/11 07:46:33;;;;;;;7.83;3.40;;;;;;;36.64;32.88;100749.17;1697780;83;21127;-68
2022/06/11 07:49:00;;;;;;;10.18;3.22;;;;;;;36.75;34.23;100752.07;1701810;83;21045;-68
2022/06/11 07:51:27;;;;;;;7.28;3.47;;;;;;;36.97;33.68;100750.39;1703152;83;21103;-68
2022/06/11 07:53:54;;;;;;;13.68;6.05;;;;;;;37.02;34.05;100750.47;1712835;83;21053;-69
2022/06/11 07:56:21;;;;;;;7.40;3.80;;;;;;;36.96;34.32;100749.28;1700403;83;21006;-69
2022/06/11 07:58:50;;;;;;;8.08;3.92;;;;;;;37.20;33.91;100745.50;1722719;83;21099;-69
2022/06/11 08:01:17;;;;;;;8.85;3.50;;;;;;;37.02;33.37;100741.62;1697663;83;21069;-68
2022/06/11 08:03:45;;;;;;;8.78;3.27;;;;;;;37.18;34.15;100753.51;1714669;83;21576;-68
2022/06/11 08:06:12;;;;;;;7.22;3.60;;;;;;;37.29;33.47;100752.13;1700186;83;21068;-69
2022/06/11 08:08:40;;;;;;;5.80;3.30;;;;;;;37.07;32.23;100752.47;1704452;84;21170;-69
2022/06/11 08:11:08;;;;;;;11.85;4.03;;;;;;;37.17;32.83;100751.86;1678478;83;21046;-69
2022/06/11 08:13:35;;;;;;;9.80;4.62;;;;;;;37.05;31.02;100745.18;1694641;83;21097;-69
2022/06/11 08:16:04;;;;;;;11.28;6.58;;;;;;;37.23;31.69;100749.06;1706519;83;21085;-70
2022/06/11 08:18:34;;;;;;;12.05;6.83;;;;;;;37.39;28.08;100739.43;1696976;83;21058;-68
2022/06/11 08:21:01;;;;;;;9.83;6.70;;;;;;;37.01;30.00;100753.42;1710011;83;21021;-68
2022/06/11 08:23:29;;;;;;;10.63;6.30;;;;;;;37.28;30.03;100754.52;1700742;83;21041;-69
2022/06/11 08:25:56;;;;;;;10.98;6.33;;;;;;;37.31;28.05;100744.34;1704072;83;21041;-69
2022/06/11 08:28:24;;;;;;;14.18;6.45;;;;;;;37.53;29.43;100735.09;1698798;83;21102;-68
2022/06/11 08:30:51;;;;;;;14.03;8.10;;;;;;;37.65;31.14;100732.67;1683591;83;21105;-68
2022/06/11 08:33:19;;;;;;;13.05;8.23;;;;;;;37.15;29.30;100736.52;1716512;83;21120;-68
2022/06/11 08:35:48;;;;;;;10.75;6.45;;;;;;;36.83;29.21;100732.39;1723763;83;21088;-69
2022/06/11 08:38:16;;;;;;;11.68;6.62;;;;;;;37.39;30.36;100729.19;1697589;83;21105;-68
2022/06/11 08:40:53;;;;;;;11.78;7.37;;;;;;;37.63;30.63;100733.42;1718667;83;21021;-68
2022/06/11 08:43:31;;;;;;;11.95;7.30;;;;;;;37.63;29.72;100728.58;1677339;83;21035;-68
2022/06/11 08:46:15;;;;;;;12.23;8.65;;;;;;;37.59;31.22;100730.93;1680741;83;21082;-68
2022/06/11 08:49:08;;;;;;;14.45;8.58;;;;;;;37.15;30.92;100729.31;1690655;83;21015;-68
2022/06/11 08:51:47;;;;;;;13.35;8.98;;;;;;;37.24;31.24;100723.02;1707114;83;21065;-68
2022/06/11 08:54:23;;;;;;;12.23;8.83;;;;;;;36.97;29.61;100721.41;1709983;83;21579;-69
2022/06/11 08:57:37;;;;;;;16.02;9.53;;;;;;;37.32;29.87;100719.95;1690698;83;21082;-68
2022/06/11 09:00:13;;;;;;;15.68;10.25;;;;;;;36.86;29.50;100714.49;1718920;83;21591;-68
2022/06/11 09:02:55;;;;;;;17.12;10.70;;;;;;;37.53;29.72;100716.29;1718555;83;21013;-69
2022/06/11 09:05:30;;;;;;;16.95;10.30;;;;;;;37.53;28.93;100713.60;1699111;83;21088;-69
2022/06/11 09:08:12;;;;;;;12.93;10.18;;;;;;;37.73;29.13;100716.66;1679363;83;21047;-68
2022/06/11 09:11:32;;;;;;;17.10;11.00;;;;;;;37.65;29.82;100708.50;1700381;83;21556;-69
2022/06/11 09:14:38;;;;;;;15.70;10.60;;;;;;;37.62;28.59;100708.97;1696692;83;21055;-69
2022/06/11 09:17:36;;;;;;;15.25;10.30;;;;;;;37.80;27.53;100696.38;1706964;83;21100;-69
2022/06/11 09:20:32;;;;;;;17.52;10.40;;;;;;;37.91;27.20;100701.37;1706561;83;21091;-69
2022/06/11 09:23:19;;;;;;;19.62;11.25;;;;;;;37.98;28.15;100697.47;1701073;83;21061;-69
2022/06/11 09:26:05;;;;;;;15.48;10.15;;;;;;;37.97;27.19;100695.82;1704349;83;21110;-69
2022/06/11 09:28:42;;;;;;;13.40;9.38;;;;;;;37.60;27.17;100701.69;1709231;83;21100;-69
2022/06/11 09:31:21;;;;;;;13.38;9.60;;;;;;;37.70;27.54;100698.89;1722466;83;21654;-69
2022/06/11 09:33:57;;;;;;;14.25;9.35;;;;;;;37.97;27.73;100690.45;1706835;83;21096;-69
2022/06/11 09:36:32;;;;;;;14.95;9.90;;;;;;;38.06;28.10;100686.33;1692027;83;21049;-70
2022/06/11 09:39:22;;;;;;;15.20;9.63;;;;;;;38.03;28.67;100692.15;1690158;83;21075;-70
2022/06/11 09:42:03;;;;;;;16.30;10.15;;;;;;;37.89;27.65;100691.67;1697311;83;21077;-70
2022/06/11 09:44:45;;;;;;;14.18;9.95;;;;;;;37.55;27.25;100690.00;1702561;83;21540;-69
2022/06/11 09:47:35;;;;;;;17.62;10.65;;;;;;;37.81;29.82;100688.05;1679601;83;21058;-68
2022/06/11 09:50:21;;;;;;;14.63;10.45;;;;;;;37.74;27.89;100686.06;1684278;85;21094;-69
2022/06/11 09:53:02;;;;;;;16.12;10.40;;;;;;;37.83;27.39;100687.81;1713611;83;21061;-70
2022/06/11 09:55:58;;;;;;;17.00;10.38;;;;;;;38.25;27.29;100698.15;1701087;83;21592;-69
2022/06/11 09:58:55;;;;;;;17.92;10.53;;;;;;;38.31;26.39;100697.16;1723587;83;21064;-69
2022/06/11 10:01:29;;;;;;;18.05;10.70;;;;;;;38.04;26.98;100692.45;1702053;83;21056;-69
2022/06/11 10:04:04;;;;;;;17.65;10.20;;;;;;;37.97;27.73;100693.13;1713136;83;21072;-70
2022/06/11 10:06:55;;;;;;;16.15;9.98;;;;;;;38.04;26.75;100691.61;1679221;83;22291;-70
2022/06/11 10:09:40;;;;;;;16.93;10.23;;;;;;;38.10;25.74;100689.85;1700967;83;21083;-70
2022/06/11 10:12:20;;;;;;;14.43;9.68;;;;;;;38.32;25.47;100687.20;1710157;83;21072;-69
2022/06/11 10:14:54;;;;;;;17.37;9.63;;;;;;;38.12;27.18;100689.08;1702751;83;21103;-68
2022/06/11 10:17:46;;;;;;;17.05;9.90;;;;;;;38.31;27.37;100689.09;1715310;83;21092;-68
2022/06/11 10:20:19;;;;;;;12.35;9.00;;;;;;;37.99;26.17;100688.33;1718995;83;21035;-70
2022/06/11 10:23:25;;;;;;;15.75;9.38;;;;;;;38.21;24.98;100687.61;1703486;83;21041;-70
2022/06/11 10:26:17;;;;;;;14.93;8.35;;;;;;;38.01;25.20;100685.41;1703209;83;21088;-70
2022/06/11 10:29:10;;;;;;;12.70;9.23;;;;;;;38.11;26.22;100680.20;1698725;83;21061;-70
2022/06/11 10:31:58;;;;;;;;;;;;;;;38.43;27.61;100677.69;1683398;83;21092;-71
2022/06/11 10:34:28;;;;;;;12.40;8.03;;;;;;;38.27;25.76;100675.86;1696570;83;20115;-71
2022/06/11 10:37:03;;;;;;;12.65;7.25;;;;;;;38.30;26.12;100672.66;1706215;83;21614;-71
2022/06/11 10:40:11;;;;;;;13.03;7.70;;;;;;;38.53;25.19;100676.23;1697236;83;21618;-70
2022/06/11 10:43:14;;;;;;;11.80;7.58;;;;;;;38.40;25.79;100669.30;1675774;84;22175;-70
2022/06/11 10:45:47;;;;;;;11.27;7.23;;;;;;;38.15;27.41;100669.78;1663328;85;21104;-70
2022/06/11 10:48:21;;;;;;;10.38;7.00;;;;;;;38.21;25.15;100664.22;1660745;84;21547;-71
2022/06/11 10:50:50;;;;;;;8.95;6.28;;;;;;;38.20;24.68;100660.42;1664476;85;21139;-71
2022/06/11 10:53:32;;;;;;;8.75;6.22;;;;;;;38.17;24.50;100664.43;1676985;84;21106;-71
2022/06/11 10:56:08;;;;;;;12.70;6.72;;;;;;;38.24;24.79;100660.21;1660600;84;21126;-71
2022/06/11 10:58:58;;;;;;;22.48;18.00;;;;;;;38.23;24.67;100658.06;1667964;84;21115;-70
2022/06/11 11:01:36;;;;;;;11.28;6.70;;;;;;;38.66;25.00;100654.33;1635095;86;21111;-70
2022/06/11 11:04:20;;;;;;;14.10;6.95;;;;;;;38.43;24.62;100658.87;1707370;83;21172;-71
2022/06/11 11:06:47;;;;;;;11.22;6.40;;;;;;;38.56;25.44;100650.17;1688867;83;21066;-71
2022/06/11 11:09:24;;;;;;;16.57;8.25;;;;;;;38.17;25.52;100652.88;1704598;83;21189;-71
2022/06/11 11:12:04;;;;;;;14.50;11.08;;;;;;;38.80;25.45;100656.10;1695343;83;21075;-71
2022/06/11 11:14:38;;;;;;;10.20;7.75;;;;;;;38.72;25.01;100650.63;1709628;83;21053;-70
2022/06/11 11:17:20;;;;;;;11.05;6.72;;;;;;;39.00;25.75;100648.81;1711342;82;21665;-71
2022/06/11 11:22:54;;;;;;;9.20;5.55;;;;;;;38.75;24.69;100646.10;1683088;83;21090;-70
2022/06/11 11:25:38;;;;;;;9.18;5.80;;;;;;;39.17;24.52;100645.47;1716295;83;21019;-70
2022/06/11 11:28:15;;;;;;;8.15;5.58;;;;;;;38.86;24.89;100643.78;1716848;82;20996;-71
2022/06/11 11:30:44;;;;;;;29.18;19.70;;;;;;;39.09;25.19;100635.16;1722965;82;21067;-70
2022/06/11 11:33:26;;;;;;;12.05;5.58;;;;;;;39.23;26.49;100635.56;1719552;82;21012;-71
2022/06/11 11:36:13;;;;;;;9.85;4.87;;;;;;;39.48;24.41;100630.97;1718641;82;21160;-71
2022/06/11 11:38:41;;;;;;;10.72;5.05;;;;;;;38.77;24.28;100632.38;1720598;82;21019;-69
2022/06/11 11:41:25;;;;;;;6.40;4.47;;;;;;;38.98;24.85;100624.03;1721646;82;21019;-71
2022/06/11 11:43:56;;;;;;;5.72;4.72;;;;;;;39.33;24.55;100629.45;1722398;82;21027;-69
2022/06/11 11:46:26;;;;;;;6.72;4.12;;;;;;;39.61;24.71;100624.33;1720673;82;21036;-70
2022/06/11 11:48:58;;;;;;;8.15;4.20;;;;;;;39.32;22.92;100621.08;1724600;82;21047;-70
2022/06/11 11:51:41;;;;;;;5.87;4.60;;;;;;;39.30;24.42;100623.22;1718153;82;21023;-70
2022/06/11 11:54:21;;;;;;;6.90;4.15;;;;;;;38.81;24.15;100618.69;1713122;82;21009;-69
2022/06/11 11:57:04;;;;;;;8.88;4.10;;;;;;;38.99;23.89;100618.91;1719575;83;21071;-71
2022/06/11 11:59:40;;;;;;;9.48;3.92;;;;;;;39.04;24.43;100619.78;1720628;82;21032;-71
2022/06/11 12:02:33;;;;;;;5.60;3.85;;;;;;;39.25;24.48;100611.34;1715848;82;21185;-70
2022/06/11 12:05:10;;;;;;;7.90;3.60;;;;;;;39.34;24.09;100605.48;1690189;83;21012;-71